Aeroporto :
LOGIN :

Iscrizione | Disclaimer

   EN    FR    IT 

 










Sommario :    VFR   VFR Marginale   IFR   IFR Intensivo   IFR Molto Intensivo
Visibilità : 
Base nubi : 
>= 8 km
>= 3000ft
5 / 8 km
1000 / 3000 ft
1500m / 5 km
500 / 1000 ft
800 / 1500m
200 / 500 ft
< 800m
< 200 ft
Simboli :   Temporali  Nebbia  Neve Forte  Precipitazioni Forti  Vento > 20 kt
SIGMETs :   Varie  Temporali  Ghiacco  Turbolenza  Onda orograficha  Ceneri Vulcaniche






- Altitudine del aeroporto : 9 ft
- Codice IATA : MIR


DTMB - Habib Bourguliba Int. Monastir

ULTIMO METAR :
  • 230730Z 13013KT 8000 OVC014 24/23 Q1015

METARs OBSOLETI :
  • 230700Z 12015KT 8000 SCT016 24/24 Q1015
  • 230630Z 11016KT 8000 BKN014 24/24 Q1014 NOSIG
  • 230600Z 11015KT 8000 OVC016 24/24 Q1014 NOSIG
  • 230530Z 11013KT 8000 BKN016 23/23 Q1014 NOSIG
  • 230500Z 11013KT 8000 FEW020 23/23 Q1014 NOSIG

TAF TAF DTMB
Valido dal 23 a 06 ore il 24 a 06 ore UTC


230500Z 2306/2406 12017KT 9999 BKN020
TEMPO 2317/2320 13020G35KT
PROB40
TEMPO 2320/2406 13025G37KT 4000 -TSRA FEW030CB



MetMap, La meteo Aeronautica in un colpo d'occhio ! - Copyright ORBIFLY Dicembre 2007 - Disclaimer

ORBIFLY MET'MAP TEAM :

Programmazione e sviluppo : Alexandra Zaïnal
Concezione e sviluppo : Baudouin d'Aumeries
Co-Programmazione e sviluppo : Marc-Olivier Méhu
Supporto tecnico e logistico : Manuel Goepfert
Aiuto per la traduzione : Arnaldo La Scala

Contatto : metmap@orbifly.com




FONTI E CREDITI :

   NOAA